sensor_id;sensor_type;location;lat;lon;timestamp;temperature;humidity
78788;DHT22;68131;52.508;5.502;2023-06-22T00:00:20;20.60;68.10
78788;DHT22;68131;52.508;5.502;2023-06-22T00:02:49;20.50;68.20
78788;DHT22;68131;52.508;5.502;2023-06-22T00:05:20;20.30;68.80
78788;DHT22;68131;52.508;5.502;2023-06-22T00:07:49;20.10;69.30
78788;DHT22;68131;52.508;5.502;2023-06-22T00:10:18;20.00;69.50
78788;DHT22;68131;52.508;5.502;2023-06-22T00:12:51;19.90;69.70
78788;DHT22;68131;52.508;5.502;2023-06-22T00:15:22;19.90;69.90
78788;DHT22;68131;52.508;5.502;2023-06-22T00:17:51;19.80;70.10
78788;DHT22;68131;52.508;5.502;2023-06-22T00:20:26;19.80;70.20
78788;DHT22;68131;52.508;5.502;2023-06-22T00:22:57;19.80;70.30
78788;DHT22;68131;52.508;5.502;2023-06-22T00:25:26;19.90;70.10
78788;DHT22;68131;52.508;5.502;2023-06-22T00:27:58;20.00;69.90
78788;DHT22;68131;52.508;5.502;2023-06-22T00:30:27;20.00;69.80
78788;DHT22;68131;52.508;5.502;2023-06-22T00:32:58;20.00;70.00
78788;DHT22;68131;52.508;5.502;2023-06-22T00:35:27;20.10;69.90
78788;DHT22;68131;52.508;5.502;2023-06-22T00:37:58;20.10;69.80
78788;DHT22;68131;52.508;5.502;2023-06-22T00:40:30;20.10;70.00
78788;DHT22;68131;52.508;5.502;2023-06-22T00:43:02;20.00;70.20
78788;DHT22;68131;52.508;5.502;2023-06-22T00:45:31;20.00;70.40
78788;DHT22;68131;52.508;5.502;2023-06-22T00:48:00;20.00;70.50
78788;DHT22;68131;52.508;5.502;2023-06-22T00:50:32;20.00;70.40
78788;DHT22;68131;52.508;5.502;2023-06-22T00:53:04;20.00;70.40
78788;DHT22;68131;52.508;5.502;2023-06-22T00:55:35;20.00;70.40
78788;DHT22;68131;52.508;5.502;2023-06-22T00:58:12;20.10;70.40
78788;DHT22;68131;52.508;5.502;2023-06-22T01:00:42;20.10;70.20
78788;DHT22;68131;52.508;5.502;2023-06-22T01:03:11;20.20;70.00
78788;DHT22;68131;52.508;5.502;2023-06-22T01:05:40;20.30;69.90
78788;DHT22;68131;52.508;5.502;2023-06-22T01:08:21;20.30;69.70
78788;DHT22;68131;52.508;5.502;2023-06-22T01:10:55;20.30;69.60
78788;DHT22;68131;52.508;5.502;2023-06-22T01:13:35;20.30;69.50
78788;DHT22;68131;52.508;5.502;2023-06-22T01:16:10;20.20;69.70
78788;DHT22;68131;52.508;5.502;2023-06-22T01:18:42;20.10;70.10
78788;DHT22;68131;52.508;5.502;2023-06-22T01:21:19;19.90;70.50
78788;DHT22;68131;52.508;5.502;2023-06-22T01:23:56;19.80;70.60
78788;DHT22;68131;52.508;5.502;2023-06-22T01:26:36;19.80;70.60
78788;DHT22;68131;52.508;5.502;2023-06-22T01:29:11;19.90;70.40
78788;DHT22;68131;52.508;5.502;2023-06-22T01:31:41;19.90;70.30
78788;DHT22;68131;52.508;5.502;2023-06-22T01:34:14;19.90;70.20
78788;DHT22;68131;52.508;5.502;2023-06-22T01:36:44;19.90;70.20
78788;DHT22;68131;52.508;5.502;2023-06-22T01:39:17;19.90;70.40
78788;DHT22;68131;52.508;5.502;2023-06-22T01:41:48;19.80;70.50
78788;DHT22;68131;52.508;5.502;2023-06-22T01:44:20;19.80;70.60
78788;DHT22;68131;52.508;5.502;2023-06-22T01:46:53;19.90;70.40
78788;DHT22;68131;52.508;5.502;2023-06-22T01:49:22;19.90;70.40
78788;DHT22;68131;52.508;5.502;2023-06-22T01:51:51;19.90;70.40
78788;DHT22;68131;52.508;5.502;2023-06-22T01:54:22;19.80;70.40
78788;DHT22;68131;52.508;5.502;2023-06-22T01:56:52;19.60;70.60
78788;DHT22;68131;52.508;5.502;2023-06-22T01:59:26;19.50;70.90
78788;DHT22;68131;52.508;5.502;2023-06-22T02:02:01;19.50;70.90
78788;DHT22;68131;52.508;5.502;2023-06-22T02:04:36;19.50;70.60
78788;DHT22;68131;52.508;5.502;2023-06-22T02:07:09;19.50;70.70
78788;DHT22;68131;52.508;5.502;2023-06-22T02:09:38;19.50;70.60
78788;DHT22;68131;52.508;5.502;2023-06-22T02:12:12;19.60;70.50
78788;DHT22;68131;52.508;5.502;2023-06-22T02:14:45;19.60;70.30
78788;DHT22;68131;52.508;5.502;2023-06-22T02:17:16;19.50;70.50
78788;DHT22;68131;52.508;5.502;2023-06-22T02:19:45;19.30;70.80
78788;DHT22;68131;52.508;5.502;2023-06-22T02:22:15;19.20;71.20
78788;DHT22;68131;52.508;5.502;2023-06-22T02:24:44;19.10;71.30
78788;DHT22;68131;52.508;5.502;2023-06-22T02:27:19;19.10;71.30
78788;DHT22;68131;52.508;5.502;2023-06-22T02:29:51;19.10;71.40
78788;DHT22;68131;52.508;5.502;2023-06-22T02:32:22;19.00;71.70
78788;DHT22;68131;52.508;5.502;2023-06-22T02:34:52;18.90;71.70
78788;DHT22;68131;52.508;5.502;2023-06-22T02:37:24;18.90;71.80
78788;DHT22;68131;52.508;5.502;2023-06-22T02:39:56;19.00;71.70
78788;DHT22;68131;52.508;5.502;2023-06-22T02:42:25;19.00;71.50
78788;DHT22;68131;52.508;5.502;2023-06-22T02:44:57;19.10;71.30
78788;DHT22;68131;52.508;5.502;2023-06-22T02:47:26;19.20;71.20
78788;DHT22;68131;52.508;5.502;2023-06-22T02:49:59;19.20;71.00
78788;DHT22;68131;52.508;5.502;2023-06-22T02:52:30;19.20;71.00
78788;DHT22;68131;52.508;5.502;2023-06-22T02:55:00;19.20;71.10
78788;DHT22;68131;52.508;5.502;2023-06-22T02:57:30;19.10;71.40
78788;DHT22;68131;52.508;5.502;2023-06-22T03:00:06;18.90;71.80
78788;DHT22;68131;52.508;5.502;2023-06-22T03:02:43;18.80;72.10
78788;DHT22;68131;52.508;5.502;2023-06-22T03:05:14;18.70;72.50
78788;DHT22;68131;52.508;5.502;2023-06-22T03:07:44;18.60;72.60
78788;DHT22;68131;52.508;5.502;2023-06-22T03:10:14;18.70;72.50
78788;DHT22;68131;52.508;5.502;2023-06-22T03:12:50;18.70;72.30
78788;DHT22;68131;52.508;5.502;2023-06-22T03:15:22;18.90;72.10
78788;DHT22;68131;52.508;5.502;2023-06-22T03:17:52;18.90;71.90
78788;DHT22;68131;52.508;5.502;2023-06-22T03:20:23;18.80;72.00
78788;DHT22;68131;52.508;5.502;2023-06-22T03:22:59;18.80;72.30
78788;DHT22;68131;52.508;5.502;2023-06-22T03:25:29;18.80;72.10
78788;DHT22;68131;52.508;5.502;2023-06-22T03:28:03;18.90;72.00
78788;DHT22;68131;52.508;5.502;2023-06-22T03:30:35;18.90;71.90
78788;DHT22;68131;52.508;5.502;2023-06-22T03:33:04;19.00;71.70
78788;DHT22;68131;52.508;5.502;2023-06-22T03:35:34;19.00;71.60
78788;DHT22;68131;52.508;5.502;2023-06-22T03:38:03;18.90;71.60
78788;DHT22;68131;52.508;5.502;2023-06-22T03:40:32;18.80;71.80
78788;DHT22;68131;52.508;5.502;2023-06-22T03:43:02;18.80;71.90
78788;DHT22;68131;52.508;5.502;2023-06-22T03:45:33;18.80;72.00
78788;DHT22;68131;52.508;5.502;2023-06-22T03:48:03;18.90;72.00
78788;DHT22;68131;52.508;5.502;2023-06-22T03:50:32;18.90;72.20
78788;DHT22;68131;52.508;5.502;2023-06-22T03:53:06;18.90;72.10
78788;DHT22;68131;52.508;5.502;2023-06-22T03:55:47;19.00;71.90
78788;DHT22;68131;52.508;5.502;2023-06-22T03:58:17;19.00;71.90
78788;DHT22;68131;52.508;5.502;2023-06-22T04:00:50;18.90;72.30
78788;DHT22;68131;52.508;5.502;2023-06-22T04:03:19;18.80;72.70
78788;DHT22;68131;52.508;5.502;2023-06-22T04:05:49;18.70;73.20
78788;DHT22;68131;52.508;5.502;2023-06-22T04:08:23;18.60;73.60
78788;DHT22;68131;52.508;5.502;2023-06-22T04:10:52;18.60;73.90
78788;DHT22;68131;52.508;5.502;2023-06-22T04:13:21;18.60;73.90
78788;DHT22;68131;52.508;5.502;2023-06-22T04:15:55;18.60;73.90
78788;DHT22;68131;52.508;5.502;2023-06-22T04:18:24;18.70;73.80
78788;DHT22;68131;52.508;5.502;2023-06-22T04:20:54;18.80;73.70
78788;DHT22;68131;52.508;5.502;2023-06-22T04:23:23;18.80;73.60
78788;DHT22;68131;52.508;5.502;2023-06-22T04:25:52;18.90;73.60
78788;DHT22;68131;52.508;5.502;2023-06-22T04:28:24;19.10;73.30
78788;DHT22;68131;52.508;5.502;2023-06-22T04:30:55;19.20;73.10
78788;DHT22;68131;52.508;5.502;2023-06-22T04:33:28;19.30;73.10
78788;DHT22;68131;52.508;5.502;2023-06-22T04:35:58;19.40;72.90
78788;DHT22;68131;52.508;5.502;2023-06-22T04:38:27;19.60;73.20
78788;DHT22;68131;52.508;5.502;2023-06-22T04:40:59;19.60;73.40
78788;DHT22;68131;52.508;5.502;2023-06-22T04:43:29;19.60;73.60
78788;DHT22;68131;52.508;5.502;2023-06-22T04:46:01;19.70;73.80
78788;DHT22;68131;52.508;5.502;2023-06-22T04:48:30;19.80;73.90
78788;DHT22;68131;52.508;5.502;2023-06-22T04:51:01;19.90;73.90
78788;DHT22;68131;52.508;5.502;2023-06-22T04:53:31;19.90;74.10
78788;DHT22;68131;52.508;5.502;2023-06-22T04:56:01;20.10;74.00
78788;DHT22;68131;52.508;5.502;2023-06-22T04:58:30;20.20;74.00
78788;DHT22;68131;52.508;5.502;2023-06-22T05:01:02;20.30;73.70
78788;DHT22;68131;52.508;5.502;2023-06-22T05:03:32;20.40;73.70
78788;DHT22;68131;52.508;5.502;2023-06-22T05:06:03;20.60;73.30
78788;DHT22;68131;52.508;5.502;2023-06-22T05:08:32;20.70;73.30
78788;DHT22;68131;52.508;5.502;2023-06-22T05:11:01;20.90;73.00
78788;DHT22;68131;52.508;5.502;2023-06-22T05:13:31;21.20;72.50
78788;DHT22;68131;52.508;5.502;2023-06-22T05:16:06;21.30;71.90
78788;DHT22;68131;52.508;5.502;2023-06-22T05:18:35;21.40;71.80
78788;DHT22;68131;52.508;5.502;2023-06-22T05:21:04;21.40;71.90
78788;DHT22;68131;52.508;5.502;2023-06-22T05:23:39;21.60;71.60
78788;DHT22;68131;52.508;5.502;2023-06-22T05:26:08;21.80;71.40
78788;DHT22;68131;52.508;5.502;2023-06-22T05:28:37;22.00;71.10
78788;DHT22;68131;52.508;5.502;2023-06-22T05:31:09;22.10;70.60
78788;DHT22;68131;52.508;5.502;2023-06-22T05:33:38;22.20;70.20
78788;DHT22;68131;52.508;5.502;2023-06-22T05:36:07;22.10;70.20
78788;DHT22;68131;52.508;5.502;2023-06-22T05:38:36;22.00;70.60
78788;DHT22;68131;52.508;5.502;2023-06-22T05:41:10;22.00;70.80
78788;DHT22;68131;52.508;5.502;2023-06-22T05:43:40;22.10;70.60
78788;DHT22;68131;52.508;5.502;2023-06-22T05:46:11;22.20;70.40
78788;DHT22;68131;52.508;5.502;2023-06-22T05:48:41;22.20;70.10
78788;DHT22;68131;52.508;5.502;2023-06-22T05:51:10;22.20;70.30
78788;DHT22;68131;52.508;5.502;2023-06-22T05:53:39;22.30;70.20
78788;DHT22;68131;52.508;5.502;2023-06-22T05:56:08;22.60;70.00
78788;DHT22;68131;52.508;5.502;2023-06-22T05:58:37;22.80;69.30
78788;DHT22;68131;52.508;5.502;2023-06-22T06:01:11;22.90;69.10
78788;DHT22;68131;52.508;5.502;2023-06-22T06:03:44;23.00;68.80
78788;DHT22;68131;52.508;5.502;2023-06-22T06:06:16;23.10;68.50
78788;DHT22;68131;52.508;5.502;2023-06-22T06:08:47;23.20;68.40
78788;DHT22;68131;52.508;5.502;2023-06-22T06:11:16;23.30;68.50
78788;DHT22;68131;52.508;5.502;2023-06-22T06:13:45;23.50;67.90
78788;DHT22;68131;52.508;5.502;2023-06-22T06:16:17;23.70;67.30
78788;DHT22;68131;52.508;5.502;2023-06-22T06:18:46;23.90;66.80
78788;DHT22;68131;52.508;5.502;2023-06-22T06:21:17;24.10;66.50
78788;DHT22;68131;52.508;5.502;2023-06-22T06:23:46;24.30;65.70
78788;DHT22;68131;52.508;5.502;2023-06-22T06:26:15;24.20;65.20
78788;DHT22;68131;52.508;5.502;2023-06-22T06:28:54;24.00;65.10
78788;DHT22;68131;52.508;5.502;2023-06-22T06:31:26;23.80;65.80
78788;DHT22;68131;52.508;5.502;2023-06-22T06:33:56;23.70;65.80
78788;DHT22;68131;52.508;5.502;2023-06-22T06:36:26;23.60;66.20
78788;DHT22;68131;52.508;5.502;2023-06-22T06:38:55;23.30;66.50
78788;DHT22;68131;52.508;5.502;2023-06-22T06:41:24;23.20;66.80
78788;DHT22;68131;52.508;5.502;2023-06-22T06:43:53;23.10;66.90
78788;DHT22;68131;52.508;5.502;2023-06-22T06:46:27;23.10;67.10
78788;DHT22;68131;52.508;5.502;2023-06-22T06:48:56;23.10;66.80
78788;DHT22;68131;52.508;5.502;2023-06-22T06:51:29;23.10;67.10
78788;DHT22;68131;52.508;5.502;2023-06-22T06:53:59;23.10;67.10
78788;DHT22;68131;52.508;5.502;2023-06-22T06:56:31;23.20;66.80
78788;DHT22;68131;52.508;5.502;2023-06-22T06:59:03;23.20;66.90
78788;DHT22;68131;52.508;5.502;2023-06-22T07:01:35;23.40;66.90
78788;DHT22;68131;52.508;5.502;2023-06-22T07:04:04;23.50;66.90
78788;DHT22;68131;52.508;5.502;2023-06-22T07:06:33;23.80;66.20
78788;DHT22;68131;52.508;5.502;2023-06-22T07:09:05;24.10;65.80
78788;DHT22;68131;52.508;5.502;2023-06-22T07:11:34;24.20;65.00
78788;DHT22;68131;52.508;5.502;2023-06-22T07:14:05;24.30;65.20
78788;DHT22;68131;52.508;5.502;2023-06-22T07:16:37;24.30;64.70
78788;DHT22;68131;52.508;5.502;2023-06-22T07:19:07;24.30;64.90
78788;DHT22;68131;52.508;5.502;2023-06-22T07:21:36;24.30;65.10
78788;DHT22;68131;52.508;5.502;2023-06-22T07:24:07;24.30;64.70
78788;DHT22;68131;52.508;5.502;2023-06-22T07:26:36;24.30;64.90
78788;DHT22;68131;52.508;5.502;2023-06-22T07:29:05;24.40;64.70
78788;DHT22;68131;52.508;5.502;2023-06-22T07:31:37;24.50;64.90
78788;DHT22;68131;52.508;5.502;2023-06-22T07:34:07;24.70;63.90
78788;DHT22;68131;52.508;5.502;2023-06-22T07:36:36;24.60;63.90
78788;DHT22;68131;52.508;5.502;2023-06-22T07:39:05;24.70;63.80
78788;DHT22;68131;52.508;5.502;2023-06-22T07:41:34;24.80;63.60
78788;DHT22;68131;52.508;5.502;2023-06-22T07:44:04;24.80;64.10
78788;DHT22;68131;52.508;5.502;2023-06-22T07:46:41;24.90;63.90
78788;DHT22;68131;52.508;5.502;2023-06-22T07:49:13;25.10;63.90
78788;DHT22;68131;52.508;5.502;2023-06-22T07:51:42;25.40;64.00
78788;DHT22;68131;52.508;5.502;2023-06-22T07:54:14;25.60;63.20
78788;DHT22;68131;52.508;5.502;2023-06-22T07:56:45;25.50;63.10
78788;DHT22;68131;52.508;5.502;2023-06-22T07:59:14;25.40;63.30
78788;DHT22;68131;52.508;5.502;2023-06-22T08:01:47;25.40;63.50
78788;DHT22;68131;52.508;5.502;2023-06-22T08:04:16;25.50;63.70
78788;DHT22;68131;52.508;5.502;2023-06-22T08:06:46;25.70;62.60
78788;DHT22;68131;52.508;5.502;2023-06-22T08:09:15;25.80;62.60
78788;DHT22;68131;52.508;5.502;2023-06-22T08:11:44;25.70;62.40
78788;DHT22;68131;52.508;5.502;2023-06-22T08:14:13;25.60;62.50
78788;DHT22;68131;52.508;5.502;2023-06-22T08:16:43;25.50;62.10
78788;DHT22;68131;52.508;5.502;2023-06-22T08:19:17;25.40;62.50
78788;DHT22;68131;52.508;5.502;2023-06-22T08:21:46;25.50;62.50
78788;DHT22;68131;52.508;5.502;2023-06-22T08:24:15;25.60;62.20
78788;DHT22;68131;52.508;5.502;2023-06-22T08:26:44;25.70;62.10
78788;DHT22;68131;52.508;5.502;2023-06-22T08:29:14;25.80;62.50
78788;DHT22;68131;52.508;5.502;2023-06-22T08:31:43;26.00;62.00
78788;DHT22;68131;52.508;5.502;2023-06-22T08:34:12;26.10;61.60
78788;DHT22;68131;52.508;5.502;2023-06-22T08:36:44;26.20;61.20
78788;DHT22;68131;52.508;5.502;2023-06-22T08:39:18;26.30;61.20
78788;DHT22;68131;52.508;5.502;2023-06-22T08:41:48;26.30;61.00
78788;DHT22;68131;52.508;5.502;2023-06-22T08:44:18;26.40;61.10
78788;DHT22;68131;52.508;5.502;2023-06-22T08:46:48;26.30;60.70
78788;DHT22;68131;52.508;5.502;2023-06-22T08:49:17;26.20;60.80
78788;DHT22;68131;52.508;5.502;2023-06-22T08:51:49;26.30;60.70
78788;DHT22;68131;52.508;5.502;2023-06-22T08:54:20;26.50;60.80
78788;DHT22;68131;52.508;5.502;2023-06-22T08:56:49;26.50;60.10
78788;DHT22;68131;52.508;5.502;2023-06-22T08:59:19;26.50;60.30
78788;DHT22;68131;52.508;5.502;2023-06-22T09:01:48;26.60;60.10
78788;DHT22;68131;52.508;5.502;2023-06-22T09:04:17;26.60;60.10
78788;DHT22;68131;52.508;5.502;2023-06-22T09:06:50;26.50;60.00
78788;DHT22;68131;52.508;5.502;2023-06-22T09:09:21;26.40;60.30
78788;DHT22;68131;52.508;5.502;2023-06-22T09:11:50;26.50;60.20
78788;DHT22;68131;52.508;5.502;2023-06-22T09:14:19;26.60;60.00
78788;DHT22;68131;52.508;5.502;2023-06-22T09:16:50;26.70;59.90
78788;DHT22;68131;52.508;5.502;2023-06-22T09:19:19;26.70;59.70
78788;DHT22;68131;52.508;5.502;2023-06-22T09:21:54;26.50;60.00
78788;DHT22;68131;52.508;5.502;2023-06-22T09:24:23;26.50;60.00
78788;DHT22;68131;52.508;5.502;2023-06-22T09:26:52;26.60;59.60
78788;DHT22;68131;52.508;5.502;2023-06-22T09:29:21;26.60;59.50
78788;DHT22;68131;52.508;5.502;2023-06-22T09:31:50;26.60;59.70
78788;DHT22;68131;52.508;5.502;2023-06-22T09:34:22;26.80;59.60
78788;DHT22;68131;52.508;5.502;2023-06-22T09:36:54;26.90;59.20
78788;DHT22;68131;52.508;5.502;2023-06-22T09:39:25;27.10;58.90
78788;DHT22;68131;52.508;5.502;2023-06-22T09:41:54;27.10;58.70
78788;DHT22;68131;52.508;5.502;2023-06-22T09:44:23;27.00;58.50
78788;DHT22;68131;52.508;5.502;2023-06-22T09:46:53;27.00;58.30
78788;DHT22;68131;52.508;5.502;2023-06-22T09:49:22;26.90;58.20
78788;DHT22;68131;52.508;5.502;2023-06-22T09:51:54;27.00;58.10
78788;DHT22;68131;52.508;5.502;2023-06-22T09:54:23;26.90;57.70
78788;DHT22;68131;52.508;5.502;2023-06-22T09:56:52;26.90;57.50
78788;DHT22;68131;52.508;5.502;2023-06-22T09:59:24;26.80;58.10
78788;DHT22;68131;52.508;5.502;2023-06-22T10:01:53;26.80;57.50
78788;DHT22;68131;52.508;5.502;2023-06-22T10:04:25;26.80;57.40
78788;DHT22;68131;52.508;5.502;2023-06-22T10:06:57;26.80;57.20
78788;DHT22;68131;52.508;5.502;2023-06-22T10:09:26;26.80;57.20
78788;DHT22;68131;52.508;5.502;2023-06-22T10:11:55;26.70;57.70
78788;DHT22;68131;52.508;5.502;2023-06-22T10:14:24;26.70;58.20
78788;DHT22;68131;52.508;5.502;2023-06-22T10:16:55;26.70;58.00
78788;DHT22;68131;52.508;5.502;2023-06-22T10:19:27;26.70;57.40
78788;DHT22;68131;52.508;5.502;2023-06-22T10:21:59;26.70;56.80
78788;DHT22;68131;52.508;5.502;2023-06-22T10:24:28;26.70;57.00
78788;DHT22;68131;52.508;5.502;2023-06-22T10:26:58;26.70;57.20
78788;DHT22;68131;52.508;5.502;2023-06-22T10:29:27;26.70;56.80
78788;DHT22;68131;52.508;5.502;2023-06-22T10:31:56;26.50;56.80
78788;DHT22;68131;52.508;5.502;2023-06-22T10:34:25;26.30;57.10
78788;DHT22;68131;52.508;5.502;2023-06-22T10:36:54;26.20;57.60
78788;DHT22;68131;52.508;5.502;2023-06-22T10:39:26;26.10;57.00
78788;DHT22;68131;52.508;5.502;2023-06-22T10:41:58;26.10;57.10
78788;DHT22;68131;52.508;5.502;2023-06-22T10:44:27;26.00;56.60
78788;DHT22;68131;52.508;5.502;2023-06-22T10:46:56;26.00;56.50
78788;DHT22;68131;52.508;5.502;2023-06-22T10:49:26;25.90;57.30
78788;DHT22;68131;52.508;5.502;2023-06-22T10:51:55;25.90;57.70
78788;DHT22;68131;52.508;5.502;2023-06-22T10:54:29;25.90;57.80
78788;DHT22;68131;52.508;5.502;2023-06-22T10:57:01;25.90;57.90
78788;DHT22;68131;52.508;5.502;2023-06-22T10:59:31;25.90;57.80
78788;DHT22;68131;52.508;5.502;2023-06-22T11:02:01;25.90;58.10
78788;DHT22;68131;52.508;5.502;2023-06-22T11:04:31;25.80;58.50
78788;DHT22;68131;52.508;5.502;2023-06-22T11:07:00;25.90;58.70
78788;DHT22;68131;52.508;5.502;2023-06-22T11:09:32;25.90;58.80
78788;DHT22;68131;52.508;5.502;2023-06-22T11:12:06;26.00;58.60
78788;DHT22;68131;52.508;5.502;2023-06-22T11:14:36;26.00;58.50
78788;DHT22;68131;52.508;5.502;2023-06-22T11:17:05;26.00;58.70
78788;DHT22;68131;52.508;5.502;2023-06-22T11:19:34;26.00;58.80
78788;DHT22;68131;52.508;5.502;2023-06-22T11:22:07;26.00;58.90
78788;DHT22;68131;52.508;5.502;2023-06-22T11:24:41;26.00;58.60
78788;DHT22;68131;52.508;5.502;2023-06-22T11:27:10;26.00;58.60
78788;DHT22;68131;52.508;5.502;2023-06-22T11:29:41;26.00;58.60
78788;DHT22;68131;52.508;5.502;2023-06-22T11:32:10;26.00;58.60
78788;DHT22;68131;52.508;5.502;2023-06-22T11:34:40;26.00;58.60
78788;DHT22;68131;52.508;5.502;2023-06-22T11:37:09;25.90;58.70
78788;DHT22;68131;52.508;5.502;2023-06-22T11:39:42;25.90;58.60
78788;DHT22;68131;52.508;5.502;2023-06-22T11:42:11;25.80;57.90
78788;DHT22;68131;52.508;5.502;2023-06-22T11:44:41;25.70;58.20
78788;DHT22;68131;52.508;5.502;2023-06-22T11:47:11;25.70;58.30
78788;DHT22;68131;52.508;5.502;2023-06-22T11:49:40;25.60;58.60
78788;DHT22;68131;52.508;5.502;2023-06-22T11:52:09;25.60;59.10
78788;DHT22;68131;52.508;5.502;2023-06-22T11:54:41;25.60;59.40
78788;DHT22;68131;52.508;5.502;2023-06-22T11:57:12;25.70;59.10
78788;DHT22;68131;52.508;5.502;2023-06-22T11:59:41;25.60;59.20
78788;DHT22;68131;52.508;5.502;2023-06-22T12:02:10;25.40;59.80
78788;DHT22;68131;52.508;5.502;2023-06-22T12:04:39;25.30;60.70
78788;DHT22;68131;52.508;5.502;2023-06-22T12:07:08;25.20;61.00
78788;DHT22;68131;52.508;5.502;2023-06-22T12:09:37;25.10;62.10
78788;DHT22;68131;52.508;5.502;2023-06-22T12:12:09;25.00;62.20
78788;DHT22;68131;52.508;5.502;2023-06-22T12:14:38;25.00;62.50
78788;DHT22;68131;52.508;5.502;2023-06-22T12:17:08;24.90;63.00
78788;DHT22;68131;52.508;5.502;2023-06-22T12:19:37;24.80;62.50
78788;DHT22;68131;52.508;5.502;2023-06-22T12:22:06;24.70;62.90
78788;DHT22;68131;52.508;5.502;2023-06-22T12:24:36;24.60;63.00
78788;DHT22;68131;52.508;5.502;2023-06-22T12:27:05;24.60;63.40
78788;DHT22;68131;52.508;5.502;2023-06-22T12:29:37;24.60;63.70
78788;DHT22;68131;52.508;5.502;2023-06-22T12:32:07;24.60;63.90
78788;DHT22;68131;52.508;5.502;2023-06-22T12:34:39;24.50;64.00
78788;DHT22;68131;52.508;5.502;2023-06-22T12:37:08;24.40;64.20
78788;DHT22;68131;52.508;5.502;2023-06-22T12:39:37;24.40;64.60
78788;DHT22;68131;52.508;5.502;2023-06-22T12:42:07;24.40;65.00
78788;DHT22;68131;52.508;5.502;2023-06-22T12:44:40;24.40;65.40
78788;DHT22;68131;52.508;5.502;2023-06-22T12:47:09;24.40;65.50
78788;DHT22;68131;52.508;5.502;2023-06-22T12:49:39;24.30;65.30
78788;DHT22;68131;52.508;5.502;2023-06-22T12:52:14;24.20;66.00
78788;DHT22;68131;52.508;5.502;2023-06-22T12:54:43;24.20;66.60
78788;DHT22;68131;52.508;5.502;2023-06-22T12:57:15;24.20;66.80
78788;DHT22;68131;52.508;5.502;2023-06-22T12:59:48;24.20;66.60
78788;DHT22;68131;52.508;5.502;2023-06-22T13:02:20;24.30;66.50
78788;DHT22;68131;52.508;5.502;2023-06-22T13:04:52;24.40;66.60
78788;DHT22;68131;52.508;5.502;2023-06-22T13:07:21;24.50;66.30
78788;DHT22;68131;52.508;5.502;2023-06-22T13:09:50;24.50;66.30
78788;DHT22;68131;52.508;5.502;2023-06-22T13:12:21;24.50;65.90
78788;DHT22;68131;52.508;5.502;2023-06-22T13:14:53;24.50;66.30
78788;DHT22;68131;52.508;5.502;2023-06-22T13:17:23;24.40;65.70
78788;DHT22;68131;52.508;5.502;2023-06-22T13:19:52;24.30;66.30
78788;DHT22;68131;52.508;5.502;2023-06-22T13:22:29;24.30;66.40
78788;DHT22;68131;52.508;5.502;2023-06-22T13:24:59;24.30;66.70
78788;DHT22;68131;52.508;5.502;2023-06-22T13:27:29;24.30;66.60
78788;DHT22;68131;52.508;5.502;2023-06-22T13:30:01;24.30;66.40
78788;DHT22;68131;52.508;5.502;2023-06-22T13:32:33;24.20;66.50
78788;DHT22;68131;52.508;5.502;2023-06-22T13:35:02;24.20;66.70
78788;DHT22;68131;52.508;5.502;2023-06-22T13:37:31;24.20;67.00
78788;DHT22;68131;52.508;5.502;2023-06-22T13:40:00;24.10;67.30
78788;DHT22;68131;52.508;5.502;2023-06-22T13:42:31;24.10;67.00
78788;DHT22;68131;52.508;5.502;2023-06-22T13:45:04;24.10;67.20
78788;DHT22;68131;52.508;5.502;2023-06-22T13:47:34;24.10;66.80
78788;DHT22;68131;52.508;5.502;2023-06-22T13:50:04;24.10;66.80
78788;DHT22;68131;52.508;5.502;2023-06-22T13:52:34;24.10;66.90
78788;DHT22;68131;52.508;5.502;2023-06-22T13:55:04;24.10;67.20
78788;DHT22;68131;52.508;5.502;2023-06-22T13:57:33;24.10;67.20
78788;DHT22;68131;52.508;5.502;2023-06-22T14:00:07;24.00;67.20
78788;DHT22;68131;52.508;5.502;2023-06-22T14:02:38;24.10;67.30
78788;DHT22;68131;52.508;5.502;2023-06-22T14:05:08;24.00;67.30
78788;DHT22;68131;52.508;5.502;2023-06-22T14:07:38;24.00;67.30
78788;DHT22;68131;52.508;5.502;2023-06-22T14:10:08;24.00;67.40
78788;DHT22;68131;52.508;5.502;2023-06-22T14:12:37;24.00;67.50
78788;DHT22;68131;52.508;5.502;2023-06-22T14:15:09;24.10;68.20
78788;DHT22;68131;52.508;5.502;2023-06-22T14:17:38;24.10;68.90
78788;DHT22;68131;52.508;5.502;2023-06-22T14:20:08;24.20;69.30
78788;DHT22;68131;52.508;5.502;2023-06-22T14:22:37;24.20;69.20
78788;DHT22;68131;52.508;5.502;2023-06-22T14:25:09;24.20;69.20
78788;DHT22;68131;52.508;5.502;2023-06-22T14:27:38;24.20;69.30
78788;DHT22;68131;52.508;5.502;2023-06-22T14:30:11;24.20;69.20
78788;DHT22;68131;52.508;5.502;2023-06-22T14:32:41;24.10;69.10
78788;DHT22;68131;52.508;5.502;2023-06-22T14:35:12;24.10;69.20
78788;DHT22;68131;52.508;5.502;2023-06-22T14:37:41;24.10;69.30
78788;DHT22;68131;52.508;5.502;2023-06-22T14:40:11;24.00;69.20
78788;DHT22;68131;52.508;5.502;2023-06-22T14:42:40;23.90;69.50
78788;DHT22;68131;52.508;5.502;2023-06-22T14:45:13;23.90;69.90
78788;DHT22;68131;52.508;5.502;2023-06-22T14:47:43;23.90;69.80
78788;DHT22;68131;52.508;5.502;2023-06-22T14:50:12;23.90;69.90
78788;DHT22;68131;52.508;5.502;2023-06-22T14:52:42;23.90;69.70
78788;DHT22;68131;52.508;5.502;2023-06-22T14:55:14;23.80;69.90
78788;DHT22;68131;52.508;5.502;2023-06-22T14:57:44;23.80;70.00
78788;DHT22;68131;52.508;5.502;2023-06-22T15:00:17;23.80;70.50
78788;DHT22;68131;52.508;5.502;2023-06-22T15:02:48;23.90;70.30
78788;DHT22;68131;52.508;5.502;2023-06-22T15:05:17;23.80;70.40
78788;DHT22;68131;52.508;5.502;2023-06-22T15:07:46;23.70;70.40
78788;DHT22;68131;52.508;5.502;2023-06-22T15:10:18;23.60;70.50
78788;DHT22;68131;52.508;5.502;2023-06-22T15:12:47;23.50;70.70
78788;DHT22;68131;52.508;5.502;2023-06-22T15:15:19;23.50;71.10
78788;DHT22;68131;52.508;5.502;2023-06-22T15:17:51;23.40;71.10
78788;DHT22;68131;52.508;5.502;2023-06-22T15:20:21;23.40;71.70
78788;DHT22;68131;52.508;5.502;2023-06-22T15:22:50;23.40;71.50
78788;DHT22;68131;52.508;5.502;2023-06-22T15:25:19;23.40;71.80
78788;DHT22;68131;52.508;5.502;2023-06-22T15:27:50;23.40;71.90
78788;DHT22;68131;52.508;5.502;2023-06-22T15:30:22;23.40;71.90
78788;DHT22;68131;52.508;5.502;2023-06-22T15:32:51;23.40;71.80
78788;DHT22;68131;52.508;5.502;2023-06-22T15:35:21;23.40;71.70
78788;DHT22;68131;52.508;5.502;2023-06-22T15:37:51;23.40;71.80
78788;DHT22;68131;52.508;5.502;2023-06-22T15:40:20;23.50;71.60
78788;DHT22;68131;52.508;5.502;2023-06-22T15:42:52;23.40;71.60
78788;DHT22;68131;52.508;5.502;2023-06-22T15:45:26;23.40;71.60
78788;DHT22;68131;52.508;5.502;2023-06-22T15:47:55;23.40;71.80
78788;DHT22;68131;52.508;5.502;2023-06-22T15:50:24;23.30;71.90